Карточка аэропорта URSS

Внимание!
Информация на этой странице в стадии наполнения.
Если вы не увидели какой-то информации, или заметили неточность - пожалуйста сообщите нам!
Спасибо!
Команда RU-STAFF
Название аэропортаСочи
Название аэропорта (англ.)Sochi
Превышение89 ft. (27.1 m.)
Координаты43°26.634', 39°56.55'
Высота перехода13000 ft
Эшелон переходаFL140 (QNH >= 1013); FL150 (QNH 977-1012); FL160 (QNH < 977)
Коды ответчика1060-1077
Зона ОрВДРостов-на-Дону РПИ (URRV)
Данные METARURSS 251030Z 03005MPS 9999 BKN043CB BKN070 15/13 Q1023 WS ALL RWY R02/290060 R06/290060 NOSIG RMK R06/06004MPS MT OBSC QFE766
Проноз погоды (TAF)URSS 250755Z 2509/2609 16004G09MPS 9999 SCT040CB SCT100 BECMG 2511/2512 20003G08MPS SCT050TCU BECMG 2514/2515 05003G08MPS BECMG 2517/2518 04006MPS SCT100
NOTAMshow/hide NOTAM
AWOS   TABLE

Информация о ВПП

ВПП Длина ВПП (м.) Покрытие Курс ВПП Частота ILS
062890Цементобетон58111.1
242890Цементобетон238 
022500Цементобетон22110.5
202500Цементобетон202 

Диспетчерские позиции

Позывной Наименование органа УВД Частота
URSS_APPСочи-Подход124.600
URSS_DELСочи-Деливери132.700
URSS_FM1119.000
URSS_GNDСочи-Руление119.000
URSS_R_APPСочи-Круг119.700
URSS_TWRСочи-Старт121.200



Спутниковое изображение